sensor_id;sensor_type;location;lat;lon;timestamp;P1;durP1;ratioP1;P2;durP2;ratioP2
12435;SDS011;6282;51.440;6.938;2023-07-02T00:00:07;2.20;;;2.00;;
12435;SDS011;6282;51.440;6.938;2023-07-02T00:02:35;2.28;;;2.08;;
12435;SDS011;6282;51.440;6.938;2023-07-02T00:05:02;3.17;;;2.38;;
12435;SDS011;6282;51.440;6.938;2023-07-02T00:07:29;2.97;;;2.00;;
12435;SDS011;6282;51.440;6.938;2023-07-02T00:09:57;6.95;;;2.20;;
12435;SDS011;6282;51.440;6.938;2023-07-02T00:12:25;2.53;;;2.03;;
12435;SDS011;6282;51.440;6.938;2023-07-02T00:14:53;3.42;;;2.30;;
12435;SDS011;6282;51.440;6.938;2023-07-02T00:17:19;2.75;;;2.10;;
12435;SDS011;6282;51.440;6.938;2023-07-02T00:19:46;2.90;;;1.90;;
12435;SDS011;6282;51.440;6.938;2023-07-02T00:22:16;3.40;;;2.47;;
12435;SDS011;6282;51.440;6.938;2023-07-02T00:24:43;2.97;;;2.20;;
12435;SDS011;6282;51.440;6.938;2023-07-02T00:27:10;2.72;;;1.83;;
12435;SDS011;6282;51.440;6.938;2023-07-02T00:29:37;3.60;;;2.15;;
12435;SDS011;6282;51.440;6.938;2023-07-02T00:32:06;4.70;;;2.30;;
12435;SDS011;6282;51.440;6.938;2023-07-02T00:34:33;3.97;;;2.05;;
12435;SDS011;6282;51.440;6.938;2023-07-02T00:37:00;2.65;;;2.45;;
12435;SDS011;6282;51.440;6.938;2023-07-02T00:39:27;3.83;;;2.55;;
12435;SDS011;6282;51.440;6.938;2023-07-02T00:41:54;4.90;;;1.80;;
12435;SDS011;6282;51.440;6.938;2023-07-02T00:44:27;3.70;;;2.50;;
12435;SDS011;6282;51.440;6.938;2023-07-02T00:46:54;2.85;;;1.83;;
12435;SDS011;6282;51.440;6.938;2023-07-02T00:49:22;2.55;;;2.25;;
12435;SDS011;6282;51.440;6.938;2023-07-02T00:51:50;4.03;;;2.28;;
12435;SDS011;6282;51.440;6.938;2023-07-02T00:54:17;3.60;;;1.85;;
12435;SDS011;6282;51.440;6.938;2023-07-02T00:56:44;3.58;;;2.00;;
12435;SDS011;6282;51.440;6.938;2023-07-02T00:59:11;3.13;;;2.13;;
12435;SDS011;6282;51.440;6.938;2023-07-02T01:01:38;3.30;;;2.10;;
12435;SDS011;6282;51.440;6.938;2023-07-02T01:04:06;3.42;;;2.35;;
12435;SDS011;6282;51.440;6.938;2023-07-02T01:06:36;2.22;;;2.03;;
12435;SDS011;6282;51.440;6.938;2023-07-02T01:09:06;4.43;;;2.20;;
12435;SDS011;6282;51.440;6.938;2023-07-02T01:11:34;2.80;;;2.13;;
12435;SDS011;6282;51.440;6.938;2023-07-02T01:14:05;4.75;;;1.85;;
12435;SDS011;6282;51.440;6.938;2023-07-02T01:16:34;4.47;;;2.45;;
12435;SDS011;6282;51.440;6.938;2023-07-02T01:19:04;2.95;;;2.05;;
12435;SDS011;6282;51.440;6.938;2023-07-02T01:21:38;2.72;;;2.03;;
12435;SDS011;6282;51.440;6.938;2023-07-02T01:24:06;7.95;;;2.50;;
12435;SDS011;6282;51.440;6.938;2023-07-02T01:26:33;2.92;;;2.30;;
12435;SDS011;6282;51.440;6.938;2023-07-02T01:29:12;3.55;;;2.22;;
12435;SDS011;6282;51.440;6.938;2023-07-02T01:31:39;3.33;;;2.28;;
12435;SDS011;6282;51.440;6.938;2023-07-02T01:34:06;3.58;;;2.35;;
12435;SDS011;6282;51.440;6.938;2023-07-02T01:36:34;4.90;;;2.58;;
12435;SDS011;6282;51.440;6.938;2023-07-02T01:39:03;4.22;;;2.45;;
12435;SDS011;6282;51.440;6.938;2023-07-02T01:41:32;3.83;;;2.40;;
12435;SDS011;6282;51.440;6.938;2023-07-02T01:44:03;4.82;;;2.42;;
12435;SDS011;6282;51.440;6.938;2023-07-02T01:46:30;6.00;;;2.60;;
12435;SDS011;6282;51.440;6.938;2023-07-02T01:48:57;2.95;;;2.28;;
12435;SDS011;6282;51.440;6.938;2023-07-02T01:51:23;4.80;;;2.75;;
12435;SDS011;6282;51.440;6.938;2023-07-02T01:53:50;3.22;;;2.40;;
12435;SDS011;6282;51.440;6.938;2023-07-02T01:56:19;4.57;;;2.58;;
12435;SDS011;6282;51.440;6.938;2023-07-02T01:58:45;4.43;;;2.30;;
12435;SDS011;6282;51.440;6.938;2023-07-02T02:01:12;6.15;;;2.80;;
12435;SDS011;6282;51.440;6.938;2023-07-02T02:03:39;4.05;;;2.63;;
12435;SDS011;6282;51.440;6.938;2023-07-02T02:06:06;3.63;;;2.72;;
12435;SDS011;6282;51.440;6.938;2023-07-02T02:08:33;4.97;;;2.58;;
12435;SDS011;6282;51.440;6.938;2023-07-02T02:10:59;6.53;;;3.13;;
12435;SDS011;6282;51.440;6.938;2023-07-02T02:13:28;6.32;;;2.60;;
12435;SDS011;6282;51.440;6.938;2023-07-02T02:15:55;7.53;;;2.90;;
12435;SDS011;6282;51.440;6.938;2023-07-02T02:18:22;4.45;;;2.70;;
12435;SDS011;6282;51.440;6.938;2023-07-02T02:20:49;6.15;;;2.80;;
12435;SDS011;6282;51.440;6.938;2023-07-02T02:23:16;7.80;;;3.58;;
12435;SDS011;6282;51.440;6.938;2023-07-02T02:25:43;6.57;;;2.90;;
12435;SDS011;6282;51.440;6.938;2023-07-02T02:28:10;4.63;;;3.03;;
12435;SDS011;6282;51.440;6.938;2023-07-02T02:30:39;5.05;;;3.17;;
12435;SDS011;6282;51.440;6.938;2023-07-02T02:33:05;8.85;;;3.25;;
12435;SDS011;6282;51.440;6.938;2023-07-02T02:35:32;6.80;;;3.83;;
12435;SDS011;6282;51.440;6.938;2023-07-02T02:38:01;7.57;;;3.28;;
12435;SDS011;6282;51.440;6.938;2023-07-02T02:40:29;4.40;;;2.90;;
12435;SDS011;6282;51.440;6.938;2023-07-02T02:42:56;7.78;;;3.55;;
12435;SDS011;6282;51.440;6.938;2023-07-02T02:45:23;8.48;;;3.13;;
12435;SDS011;6282;51.440;6.938;2023-07-02T02:47:51;9.75;;;4.00;;
12435;SDS011;6282;51.440;6.938;2023-07-02T02:50:18;4.95;;;2.88;;
12435;SDS011;6282;51.440;6.938;2023-07-02T02:52:45;7.78;;;2.97;;
12435;SDS011;6282;51.440;6.938;2023-07-02T02:55:11;7.47;;;3.55;;
12435;SDS011;6282;51.440;6.938;2023-07-02T02:57:38;9.13;;;4.15;;
12435;SDS011;6282;51.440;6.938;2023-07-02T03:00:05;9.93;;;3.88;;
12435;SDS011;6282;51.440;6.938;2023-07-02T03:02:34;6.25;;;4.15;;
12435;SDS011;6282;51.440;6.938;2023-07-02T03:05:02;7.35;;;4.07;;
12435;SDS011;6282;51.440;6.938;2023-07-02T03:07:29;6.75;;;4.05;;
12435;SDS011;6282;51.440;6.938;2023-07-02T03:09:57;7.88;;;4.55;;
12435;SDS011;6282;51.440;6.938;2023-07-02T03:12:25;7.57;;;4.03;;
12435;SDS011;6282;51.440;6.938;2023-07-02T03:14:52;8.55;;;3.83;;
12435;SDS011;6282;51.440;6.938;2023-07-02T03:17:20;9.73;;;4.57;;
12435;SDS011;6282;51.440;6.938;2023-07-02T03:19:47;8.60;;;4.45;;
12435;SDS011;6282;51.440;6.938;2023-07-02T03:22:15;12.20;;;4.88;;
12435;SDS011;6282;51.440;6.938;2023-07-02T03:24:42;8.90;;;4.70;;
12435;SDS011;6282;51.440;6.938;2023-07-02T03:27:09;7.85;;;4.75;;
12435;SDS011;6282;51.440;6.938;2023-07-02T03:29:36;10.55;;;4.78;;
12435;SDS011;6282;51.440;6.938;2023-07-02T03:32:03;8.63;;;4.95;;
12435;SDS011;6282;51.440;6.938;2023-07-02T03:34:31;8.68;;;5.03;;
12435;SDS011;6282;51.440;6.938;2023-07-02T03:36:58;10.95;;;5.40;;
12435;SDS011;6282;51.440;6.938;2023-07-02T03:39:26;10.07;;;5.20;;
12435;SDS011;6282;51.440;6.938;2023-07-02T03:41:53;9.32;;;4.75;;
12435;SDS011;6282;51.440;6.938;2023-07-02T03:44:20;10.63;;;5.38;;
12435;SDS011;6282;51.440;6.938;2023-07-02T03:46:46;9.82;;;5.80;;
12435;SDS011;6282;51.440;6.938;2023-07-02T03:49:13;9.32;;;4.95;;
12435;SDS011;6282;51.440;6.938;2023-07-02T03:51:40;11.93;;;5.75;;
12435;SDS011;6282;51.440;6.938;2023-07-02T03:54:07;12.02;;;5.07;;
12435;SDS011;6282;51.440;6.938;2023-07-02T03:56:35;9.90;;;5.70;;
12435;SDS011;6282;51.440;6.938;2023-07-02T03:59:02;10.30;;;5.55;;
12435;SDS011;6282;51.440;6.938;2023-07-02T04:01:28;11.38;;;6.05;;
12435;SDS011;6282;51.440;6.938;2023-07-02T04:03:55;10.23;;;5.63;;
12435;SDS011;6282;51.440;6.938;2023-07-02T04:06:23;14.15;;;6.18;;
12435;SDS011;6282;51.440;6.938;2023-07-02T04:08:50;12.93;;;5.88;;
12435;SDS011;6282;51.440;6.938;2023-07-02T04:11:16;9.98;;;5.70;;
12435;SDS011;6282;51.440;6.938;2023-07-02T04:13:45;13.25;;;6.45;;
12435;SDS011;6282;51.440;6.938;2023-07-02T04:16:12;13.32;;;6.53;;
12435;SDS011;6282;51.440;6.938;2023-07-02T04:18:39;10.85;;;6.22;;
12435;SDS011;6282;51.440;6.938;2023-07-02T04:21:06;9.90;;;5.25;;
12435;SDS011;6282;51.440;6.938;2023-07-02T04:23:33;15.65;;;6.35;;
12435;SDS011;6282;51.440;6.938;2023-07-02T04:25:59;10.68;;;6.70;;
12435;SDS011;6282;51.440;6.938;2023-07-02T04:28:26;17.38;;;7.45;;
12435;SDS011;6282;51.440;6.938;2023-07-02T04:30:54;11.65;;;6.50;;
12435;SDS011;6282;51.440;6.938;2023-07-02T04:33:21;12.05;;;6.32;;
12435;SDS011;6282;51.440;6.938;2023-07-02T04:35:48;11.93;;;6.07;;
12435;SDS011;6282;51.440;6.938;2023-07-02T04:38:15;12.88;;;6.13;;
12435;SDS011;6282;51.440;6.938;2023-07-02T04:40:42;12.15;;;6.72;;
12435;SDS011;6282;51.440;6.938;2023-07-02T04:43:10;16.83;;;8.02;;
12435;SDS011;6282;51.440;6.938;2023-07-02T04:45:37;13.45;;;6.93;;
12435;SDS011;6282;51.440;6.938;2023-07-02T04:48:06;16.70;;;7.38;;
12435;SDS011;6282;51.440;6.938;2023-07-02T04:50:33;12.23;;;6.72;;
12435;SDS011;6282;51.440;6.938;2023-07-02T04:52:59;13.50;;;6.13;;
12435;SDS011;6282;51.440;6.938;2023-07-02T04:55:26;11.45;;;6.82;;
12435;SDS011;6282;51.440;6.938;2023-07-02T04:57:54;16.55;;;6.88;;
12435;SDS011;6282;51.440;6.938;2023-07-02T05:00:20;14.27;;;7.22;;
12435;SDS011;6282;51.440;6.938;2023-07-02T05:02:48;14.70;;;7.15;;
12435;SDS011;6282;51.440;6.938;2023-07-02T05:05:16;14.32;;;6.68;;
12435;SDS011;6282;51.440;6.938;2023-07-02T05:07:43;14.60;;;7.10;;
12435;SDS011;6282;51.440;6.938;2023-07-02T05:10:10;16.92;;;7.28;;
12435;SDS011;6282;51.440;6.938;2023-07-02T05:12:37;12.57;;;6.90;;
12435;SDS011;6282;51.440;6.938;2023-07-02T05:15:04;13.65;;;7.40;;
12435;SDS011;6282;51.440;6.938;2023-07-02T05:17:32;12.07;;;6.68;;
12435;SDS011;6282;51.440;6.938;2023-07-02T05:20:01;15.18;;;7.05;;
12435;SDS011;6282;51.440;6.938;2023-07-02T05:22:29;17.20;;;7.88;;
12435;SDS011;6282;51.440;6.938;2023-07-02T05:24:56;14.13;;;7.10;;
12435;SDS011;6282;51.440;6.938;2023-07-02T05:27:23;14.27;;;7.38;;
12435;SDS011;6282;51.440;6.938;2023-07-02T05:29:50;13.45;;;7.40;;
12435;SDS011;6282;51.440;6.938;2023-07-02T05:32:17;11.60;;;7.25;;
12435;SDS011;6282;51.440;6.938;2023-07-02T05:34:44;13.32;;;7.50;;
12435;SDS011;6282;51.440;6.938;2023-07-02T05:37:11;12.73;;;7.05;;
12435;SDS011;6282;51.440;6.938;2023-07-02T05:39:39;16.88;;;7.40;;
12435;SDS011;6282;51.440;6.938;2023-07-02T05:42:06;16.30;;;7.03;;
12435;SDS011;6282;51.440;6.938;2023-07-02T05:44:33;16.92;;;7.60;;
12435;SDS011;6282;51.440;6.938;2023-07-02T05:47:00;15.50;;;8.38;;
12435;SDS011;6282;51.440;6.938;2023-07-02T05:49:27;13.15;;;7.50;;
12435;SDS011;6282;51.440;6.938;2023-07-02T05:51:55;15.68;;;7.95;;
12435;SDS011;6282;51.440;6.938;2023-07-02T05:54:22;12.98;;;6.72;;
12435;SDS011;6282;51.440;6.938;2023-07-02T05:56:50;15.48;;;7.85;;
12435;SDS011;6282;51.440;6.938;2023-07-02T05:59:17;14.77;;;7.63;;
12435;SDS011;6282;51.440;6.938;2023-07-02T06:01:44;12.40;;;6.88;;
12435;SDS011;6282;51.440;6.938;2023-07-02T06:04:11;12.10;;;6.30;;
12435;SDS011;6282;51.440;6.938;2023-07-02T06:06:38;16.13;;;7.82;;
12435;SDS011;6282;51.440;6.938;2023-07-02T06:09:05;13.73;;;6.80;;
12435;SDS011;6282;51.440;6.938;2023-07-02T06:11:32;13.77;;;6.80;;
12435;SDS011;6282;51.440;6.938;2023-07-02T06:14:01;15.60;;;7.25;;
12435;SDS011;6282;51.440;6.938;2023-07-02T06:16:27;16.48;;;7.03;;
12435;SDS011;6282;51.440;6.938;2023-07-02T06:18:55;14.10;;;6.53;;
12435;SDS011;6282;51.440;6.938;2023-07-02T06:21:22;12.13;;;5.95;;
12435;SDS011;6282;51.440;6.938;2023-07-02T06:23:54;11.85;;;6.13;;
12435;SDS011;6282;51.440;6.938;2023-07-02T06:26:22;12.18;;;5.93;;
12435;SDS011;6282;51.440;6.938;2023-07-02T06:28:49;14.02;;;6.00;;
12435;SDS011;6282;51.440;6.938;2023-07-02T06:31:17;12.45;;;6.05;;
12435;SDS011;6282;51.440;6.938;2023-07-02T06:33:44;10.35;;;5.38;;
12435;SDS011;6282;51.440;6.938;2023-07-02T06:36:11;9.77;;;5.43;;
12435;SDS011;6282;51.440;6.938;2023-07-02T06:38:39;11.43;;;5.15;;
12435;SDS011;6282;51.440;6.938;2023-07-02T06:41:06;12.85;;;5.68;;
12435;SDS011;6282;51.440;6.938;2023-07-02T06:43:33;10.82;;;5.97;;
12435;SDS011;6282;51.440;6.938;2023-07-02T06:46:00;13.18;;;5.55;;
12435;SDS011;6282;51.440;6.938;2023-07-02T06:48:28;9.68;;;5.80;;
12435;SDS011;6282;51.440;6.938;2023-07-02T06:50:55;9.35;;;5.32;;
12435;SDS011;6282;51.440;6.938;2023-07-02T06:53:22;12.63;;;5.50;;
12435;SDS011;6282;51.440;6.938;2023-07-02T06:55:49;10.40;;;4.72;;
12435;SDS011;6282;51.440;6.938;2023-07-02T06:58:16;12.50;;;5.63;;
12435;SDS011;6282;51.440;6.938;2023-07-02T07:00:42;10.93;;;5.35;;
12435;SDS011;6282;51.440;6.938;2023-07-02T07:03:09;9.05;;;5.00;;
12435;SDS011;6282;51.440;6.938;2023-07-02T07:05:38;10.88;;;5.45;;
12435;SDS011;6282;51.440;6.938;2023-07-02T07:08:04;10.32;;;5.93;;
12435;SDS011;6282;51.440;6.938;2023-07-02T07:10:31;13.85;;;5.82;;
12435;SDS011;6282;51.440;6.938;2023-07-02T07:12:59;10.90;;;5.65;;
12435;SDS011;6282;51.440;6.938;2023-07-02T07:15:27;9.82;;;5.68;;
12435;SDS011;6282;51.440;6.938;2023-07-02T07:17:56;12.13;;;5.97;;
12435;SDS011;6282;51.440;6.938;2023-07-02T07:20:22;10.93;;;6.07;;
12435;SDS011;6282;51.440;6.938;2023-07-02T07:22:51;8.10;;;5.47;;
12435;SDS011;6282;51.440;6.938;2023-07-02T07:25:17;12.75;;;5.85;;
12435;SDS011;6282;51.440;6.938;2023-07-02T07:27:44;13.00;;;6.03;;
12435;SDS011;6282;51.440;6.938;2023-07-02T07:30:11;11.60;;;6.00;;
12435;SDS011;6282;51.440;6.938;2023-07-02T07:32:39;13.07;;;6.00;;
12435;SDS011;6282;51.440;6.938;2023-07-02T07:35:06;13.88;;;6.50;;
12435;SDS011;6282;51.440;6.938;2023-07-02T07:37:33;12.18;;;6.00;;
12435;SDS011;6282;51.440;6.938;2023-07-02T07:40:02;11.65;;;6.22;;
12435;SDS011;6282;51.440;6.938;2023-07-02T07:42:31;9.93;;;6.68;;
12435;SDS011;6282;51.440;6.938;2023-07-02T07:44:57;11.27;;;6.20;;
12435;SDS011;6282;51.440;6.938;2023-07-02T07:47:25;11.60;;;5.95;;
12435;SDS011;6282;51.440;6.938;2023-07-02T07:49:52;11.00;;;5.40;;
12435;SDS011;6282;51.440;6.938;2023-07-02T07:52:19;8.90;;;4.57;;
12435;SDS011;6282;51.440;6.938;2023-07-02T07:54:46;9.55;;;4.82;;
12435;SDS011;6282;51.440;6.938;2023-07-02T07:57:15;9.63;;;4.20;;
12435;SDS011;6282;51.440;6.938;2023-07-02T07:59:41;8.20;;;4.80;;
12435;SDS011;6282;51.440;6.938;2023-07-02T08:02:08;7.40;;;4.93;;
12435;SDS011;6282;51.440;6.938;2023-07-02T08:04:35;8.90;;;4.32;;
12435;SDS011;6282;51.440;6.938;2023-07-02T08:07:02;11.43;;;4.82;;
12435;SDS011;6282;51.440;6.938;2023-07-02T08:09:30;8.52;;;4.43;;
12435;SDS011;6282;51.440;6.938;2023-07-02T08:11:57;7.07;;;4.45;;
12435;SDS011;6282;51.440;6.938;2023-07-02T08:14:26;7.63;;;5.10;;
12435;SDS011;6282;51.440;6.938;2023-07-02T08:16:53;10.30;;;4.72;;
12435;SDS011;6282;51.440;6.938;2023-07-02T08:19:20;7.95;;;4.68;;
12435;SDS011;6282;51.440;6.938;2023-07-02T08:21:47;6.93;;;4.20;;
12435;SDS011;6282;51.440;6.938;2023-07-02T08:24:14;7.90;;;4.53;;
12435;SDS011;6282;51.440;6.938;2023-07-02T08:26:41;10.73;;;4.85;;
12435;SDS011;6282;51.440;6.938;2023-07-02T08:29:09;9.00;;;4.03;;
12435;SDS011;6282;51.440;6.938;2023-07-02T08:31:37;7.72;;;3.97;;
12435;SDS011;6282;51.440;6.938;2023-07-02T08:34:04;7.72;;;3.65;;
12435;SDS011;6282;51.440;6.938;2023-07-02T08:36:31;8.77;;;4.30;;
12435;SDS011;6282;51.440;6.938;2023-07-02T08:38:58;8.93;;;3.90;;
12435;SDS011;6282;51.440;6.938;2023-07-02T08:41:25;8.63;;;3.90;;
12435;SDS011;6282;51.440;6.938;2023-07-02T08:43:54;6.93;;;4.05;;
12435;SDS011;6282;51.440;6.938;2023-07-02T08:46:21;6.95;;;3.95;;
12435;SDS011;6282;51.440;6.938;2023-07-02T08:48:50;7.50;;;3.67;;
12435;SDS011;6282;51.440;6.938;2023-07-02T08:51:17;6.55;;;3.80;;
12435;SDS011;6282;51.440;6.938;2023-07-02T08:53:45;6.75;;;3.35;;
12435;SDS011;6282;51.440;6.938;2023-07-02T08:56:12;5.43;;;3.60;;
12435;SDS011;6282;51.440;6.938;2023-07-02T08:58:39;7.80;;;3.60;;
12435;SDS011;6282;51.440;6.938;2023-07-02T09:01:06;5.47;;;3.42;;
12435;SDS011;6282;51.440;6.938;2023-07-02T09:03:34;7.55;;;3.53;;
12435;SDS011;6282;51.440;6.938;2023-07-02T09:06:03;4.55;;;2.90;;
12435;SDS011;6282;51.440;6.938;2023-07-02T09:08:30;7.82;;;3.40;;
12435;SDS011;6282;51.440;6.938;2023-07-02T09:11:05;8.88;;;3.30;;
12435;SDS011;6282;51.440;6.938;2023-07-02T09:13:41;6.40;;;3.40;;
12435;SDS011;6282;51.440;6.938;2023-07-02T09:16:22;5.50;;;3.65;;
12435;SDS011;6282;51.440;6.938;2023-07-02T09:19:00;9.18;;;3.92;;
12435;SDS011;6282;51.440;6.938;2023-07-02T09:21:37;8.48;;;3.80;;
12435;SDS011;6282;51.440;6.938;2023-07-02T09:24:12;7.07;;;4.05;;
12435;SDS011;6282;51.440;6.938;2023-07-02T09:26:41;7.88;;;4.00;;
12435;SDS011;6282;51.440;6.938;2023-07-02T09:29:09;5.80;;;4.07;;
12435;SDS011;6282;51.440;6.938;2023-07-02T09:31:43;6.90;;;3.83;;
12435;SDS011;6282;51.440;6.938;2023-07-02T09:34:11;9.05;;;4.40;;
12435;SDS011;6282;51.440;6.938;2023-07-02T09:36:39;5.68;;;3.72;;
12435;SDS011;6282;51.440;6.938;2023-07-02T09:39:07;6.95;;;4.00;;
12435;SDS011;6282;51.440;6.938;2023-07-02T09:41:34;6.95;;;4.10;;
12435;SDS011;6282;51.440;6.938;2023-07-02T09:44:02;9.88;;;4.05;;
12435;SDS011;6282;51.440;6.938;2023-07-02T09:46:29;7.80;;;4.80;;
12435;SDS011;6282;51.440;6.938;2023-07-02T09:48:57;8.38;;;4.15;;
12435;SDS011;6282;51.440;6.938;2023-07-02T09:51:25;8.65;;;4.53;;
12435;SDS011;6282;51.440;6.938;2023-07-02T09:53:53;6.43;;;4.32;;
12435;SDS011;6282;51.440;6.938;2023-07-02T09:56:20;6.38;;;4.22;;
12435;SDS011;6282;51.440;6.938;2023-07-02T09:58:47;9.05;;;4.22;;
12435;SDS011;6282;51.440;6.938;2023-07-02T10:01:14;9.73;;;3.88;;
12435;SDS011;6282;51.440;6.938;2023-07-02T10:03:41;7.05;;;3.88;;
12435;SDS011;6282;51.440;6.938;2023-07-02T10:06:08;8.40;;;4.18;;
12435;SDS011;6282;51.440;6.938;2023-07-02T10:08:35;7.65;;;4.15;;
12435;SDS011;6282;51.440;6.938;2023-07-02T10:11:10;9.30;;;4.05;;
12435;SDS011;6282;51.440;6.938;2023-07-02T10:13:39;10.27;;;3.78;;
12435;SDS011;6282;51.440;6.938;2023-07-02T10:16:06;7.22;;;3.55;;
12435;SDS011;6282;51.440;6.938;2023-07-02T10:18:33;5.75;;;3.20;;
12435;SDS011;6282;51.440;6.938;2023-07-02T10:21:00;7.53;;;3.80;;
12435;SDS011;6282;51.440;6.938;2023-07-02T10:23:39;9.43;;;3.58;;
12435;SDS011;6282;51.440;6.938;2023-07-02T10:26:10;8.05;;;3.30;;
12435;SDS011;6282;51.440;6.938;2023-07-02T10:28:40;9.48;;;3.65;;
12435;SDS011;6282;51.440;6.938;2023-07-02T10:31:17;6.85;;;3.40;;
12435;SDS011;6282;51.440;6.938;2023-07-02T10:33:45;6.72;;;3.70;;
12435;SDS011;6282;51.440;6.938;2023-07-02T10:36:19;7.10;;;3.55;;
12435;SDS011;6282;51.440;6.938;2023-07-02T10:38:46;7.50;;;3.58;;
12435;SDS011;6282;51.440;6.938;2023-07-02T10:41:24;5.30;;;3.65;;
12435;SDS011;6282;51.440;6.938;2023-07-02T10:43:51;6.30;;;3.80;;
12435;SDS011;6282;51.440;6.938;2023-07-02T10:46:19;8.05;;;3.80;;
12435;SDS011;6282;51.440;6.938;2023-07-02T10:48:52;6.95;;;3.22;;
12435;SDS011;6282;51.440;6.938;2023-07-02T10:51:20;7.28;;;3.35;;
12435;SDS011;6282;51.440;6.938;2023-07-02T10:53:55;7.10;;;3.90;;
12435;SDS011;6282;51.440;6.938;2023-07-02T10:56:25;7.65;;;3.80;;
12435;SDS011;6282;51.440;6.938;2023-07-02T10:58:52;7.38;;;3.67;;
12435;SDS011;6282;51.440;6.938;2023-07-02T11:01:23;6.65;;;3.40;;
12435;SDS011;6282;51.440;6.938;2023-07-02T11:03:57;8.25;;;4.22;;
12435;SDS011;6282;51.440;6.938;2023-07-02T11:06:25;6.40;;;3.78;;
12435;SDS011;6282;51.440;6.938;2023-07-02T11:08:52;5.68;;;3.22;;
12435;SDS011;6282;51.440;6.938;2023-07-02T11:11:21;5.38;;;3.22;;
12435;SDS011;6282;51.440;6.938;2023-07-02T11:13:51;9.52;;;3.35;;
12435;SDS011;6282;51.440;6.938;2023-07-02T11:16:21;6.65;;;3.45;;
12435;SDS011;6282;51.440;6.938;2023-07-02T11:18:51;5.88;;;3.10;;
12435;SDS011;6282;51.440;6.938;2023-07-02T11:21:18;7.95;;;3.47;;
12435;SDS011;6282;51.440;6.938;2023-07-02T11:23:46;6.97;;;3.50;;
12435;SDS011;6282;51.440;6.938;2023-07-02T11:26:13;4.82;;;2.97;;
12435;SDS011;6282;51.440;6.938;2023-07-02T11:28:50;4.97;;;3.58;;
12435;SDS011;6282;51.440;6.938;2023-07-02T11:31:24;8.68;;;3.67;;
12435;SDS011;6282;51.440;6.938;2023-07-02T11:33:52;5.18;;;3.20;;
12435;SDS011;6282;51.440;6.938;2023-07-02T11:36:20;7.05;;;3.17;;
12435;SDS011;6282;51.440;6.938;2023-07-02T11:38:48;4.97;;;3.00;;
12435;SDS011;6282;51.440;6.938;2023-07-02T11:41:16;7.35;;;3.20;;
12435;SDS011;6282;51.440;6.938;2023-07-02T11:43:43;7.13;;;3.25;;
12435;SDS011;6282;51.440;6.938;2023-07-02T11:46:12;4.88;;;2.83;;
12435;SDS011;6282;51.440;6.938;2023-07-02T11:48:39;8.70;;;3.20;;
12435;SDS011;6282;51.440;6.938;2023-07-02T11:51:07;5.47;;;2.90;;
12435;SDS011;6282;51.440;6.938;2023-07-02T11:53:33;4.05;;;2.70;;
12435;SDS011;6282;51.440;6.938;2023-07-02T11:56:01;5.82;;;3.33;;
12435;SDS011;6282;51.440;6.938;2023-07-02T11:58:28;4.40;;;2.72;;
12435;SDS011;6282;51.440;6.938;2023-07-02T12:00:55;5.97;;;3.15;;
12435;SDS011;6282;51.440;6.938;2023-07-02T12:03:23;7.57;;;3.03;;
12435;SDS011;6282;51.440;6.938;2023-07-02T12:05:50;6.78;;;2.97;;
12435;SDS011;6282;51.440;6.938;2023-07-02T12:08:18;5.68;;;2.92;;
12435;SDS011;6282;51.440;6.938;2023-07-02T12:10:44;6.70;;;2.90;;
12435;SDS011;6282;51.440;6.938;2023-07-02T12:13:11;6.45;;;3.20;;
12435;SDS011;6282;51.440;6.938;2023-07-02T12:15:38;6.47;;;3.47;;
12435;SDS011;6282;51.440;6.938;2023-07-02T12:18:05;7.55;;;2.95;;
12435;SDS011;6282;51.440;6.938;2023-07-02T12:20:34;6.32;;;3.30;;
12435;SDS011;6282;51.440;6.938;2023-07-02T12:23:01;9.15;;;3.20;;
12435;SDS011;6282;51.440;6.938;2023-07-02T12:25:28;6.40;;;3.13;;
12435;SDS011;6282;51.440;6.938;2023-07-02T12:27:55;9.43;;;3.55;;
12435;SDS011;6282;51.440;6.938;2023-07-02T12:30:22;6.68;;;3.13;;
12435;SDS011;6282;51.440;6.938;2023-07-02T12:32:48;6.22;;;3.15;;
12435;SDS011;6282;51.440;6.938;2023-07-02T12:35:15;6.03;;;3.28;;
12435;SDS011;6282;51.440;6.938;2023-07-02T12:37:44;6.95;;;3.70;;
12435;SDS011;6282;51.440;6.938;2023-07-02T12:40:12;6.20;;;3.15;;
12435;SDS011;6282;51.440;6.938;2023-07-02T12:45:07;6.57;;;3.55;;
12435;SDS011;6282;51.440;6.938;2023-07-02T12:47:35;4.32;;;2.97;;
12435;SDS011;6282;51.440;6.938;2023-07-02T12:50:01;3.90;;;2.78;;
12435;SDS011;6282;51.440;6.938;2023-07-02T12:52:29;5.97;;;3.42;;
12435;SDS011;6282;51.440;6.938;2023-07-02T12:54:57;9.32;;;3.80;;
12435;SDS011;6282;51.440;6.938;2023-07-02T12:57:24;4.38;;;2.72;;
12435;SDS011;6282;51.440;6.938;2023-07-02T12:59:52;6.90;;;3.22;;
12435;SDS011;6282;51.440;6.938;2023-07-02T13:02:18;8.77;;;3.35;;
12435;SDS011;6282;51.440;6.938;2023-07-02T13:04:46;6.90;;;3.30;;
12435;SDS011;6282;51.440;6.938;2023-07-02T13:07:13;6.68;;;3.45;;
12435;SDS011;6282;51.440;6.938;2023-07-02T13:09:40;4.60;;;3.22;;
12435;SDS011;6282;51.440;6.938;2023-07-02T13:12:09;5.82;;;3.25;;
12435;SDS011;6282;51.440;6.938;2023-07-02T13:14:36;6.35;;;3.80;;
12435;SDS011;6282;51.440;6.938;2023-07-02T13:17:03;6.03;;;3.85;;
12435;SDS011;6282;51.440;6.938;2023-07-02T13:19:31;5.47;;;3.60;;
12435;SDS011;6282;51.440;6.938;2023-07-02T13:21:58;7.97;;;3.90;;
12435;SDS011;6282;51.440;6.938;2023-07-02T13:24:27;3.40;;;3.08;;
12435;SDS011;6282;51.440;6.938;2023-07-02T13:26:54;8.38;;;3.88;;
12435;SDS011;6282;51.440;6.938;2023-07-02T13:29:23;6.85;;;3.50;;
12435;SDS011;6282;51.440;6.938;2023-07-02T13:31:49;6.10;;;3.42;;
12435;SDS011;6282;51.440;6.938;2023-07-02T13:34:18;7.07;;;4.05;;
12435;SDS011;6282;51.440;6.938;2023-07-02T13:36:44;7.88;;;3.47;;
12435;SDS011;6282;51.440;6.938;2023-07-02T13:39:12;6.47;;;3.03;;
12435;SDS011;6282;51.440;6.938;2023-07-02T13:41:38;7.68;;;4.07;;
12435;SDS011;6282;51.440;6.938;2023-07-02T13:44:06;8.23;;;3.90;;
12435;SDS011;6282;51.440;6.938;2023-07-02T13:46:34;8.25;;;3.50;;
12435;SDS011;6282;51.440;6.938;2023-07-02T13:49:01;9.75;;;3.75;;
12435;SDS011;6282;51.440;6.938;2023-07-02T13:51:28;7.72;;;3.58;;
12435;SDS011;6282;51.440;6.938;2023-07-02T13:53:55;9.60;;;3.88;;
12435;SDS011;6282;51.440;6.938;2023-07-02T13:56:22;5.65;;;3.83;;
12435;SDS011;6282;51.440;6.938;2023-07-02T13:59:03;7.22;;;3.83;;
12435;SDS011;6282;51.440;6.938;2023-07-02T14:01:30;6.53;;;3.83;;
12435;SDS011;6282;51.440;6.938;2023-07-02T14:03:57;7.63;;;3.67;;
12435;SDS011;6282;51.440;6.938;2023-07-02T14:06:24;11.13;;;4.03;;
12435;SDS011;6282;51.440;6.938;2023-07-02T14:08:51;8.20;;;4.10;;
12435;SDS011;6282;51.440;6.938;2023-07-02T14:11:19;6.25;;;3.72;;
12435;SDS011;6282;51.440;6.938;2023-07-02T14:13:46;7.18;;;3.78;;
12435;SDS011;6282;51.440;6.938;2023-07-02T14:16:14;6.85;;;4.05;;
12435;SDS011;6282;51.440;6.938;2023-07-02T14:18:41;9.73;;;3.92;;
12435;SDS011;6282;51.440;6.938;2023-07-02T14:21:08;5.93;;;3.80;;
12435;SDS011;6282;51.440;6.938;2023-07-02T14:23:35;8.65;;;3.90;;
12435;SDS011;6282;51.440;6.938;2023-07-02T14:26:02;6.65;;;4.15;;
12435;SDS011;6282;51.440;6.938;2023-07-02T14:28:30;11.88;;;4.05;;
12435;SDS011;6282;51.440;6.938;2023-07-02T14:30:57;9.35;;;4.25;;
12435;SDS011;6282;51.440;6.938;2023-07-02T14:33:26;9.63;;;4.28;;
12435;SDS011;6282;51.440;6.938;2023-07-02T14:35:54;8.85;;;4.00;;
12435;SDS011;6282;51.440;6.938;2023-07-02T14:38:21;11.88;;;4.13;;
12435;SDS011;6282;51.440;6.938;2023-07-02T14:40:48;10.65;;;4.65;;
12435;SDS011;6282;51.440;6.938;2023-07-02T14:43:16;10.15;;;3.75;;
12435;SDS011;6282;51.440;6.938;2023-07-02T14:45:44;8.32;;;4.30;;
12435;SDS011;6282;51.440;6.938;2023-07-02T14:48:14;10.82;;;4.20;;
12435;SDS011;6282;51.440;6.938;2023-07-02T14:50:44;7.43;;;4.22;;
12435;SDS011;6282;51.440;6.938;2023-07-02T14:53:11;8.43;;;4.60;;
12435;SDS011;6282;51.440;6.938;2023-07-02T14:55:38;6.82;;;3.65;;
12435;SDS011;6282;51.440;6.938;2023-07-02T14:58:06;9.32;;;4.57;;
12435;SDS011;6282;51.440;6.938;2023-07-02T15:00:33;8.18;;;4.50;;
12435;SDS011;6282;51.440;6.938;2023-07-02T15:03:00;8.43;;;4.40;;